sensor_id;sensor_type;location;lat;lon;timestamp;P1;durP1;ratioP1;P2;durP2;ratioP2
61471;SDS011;47337;54.068;12.114;2023-03-03T00:00:00;56.72;;;11.75;;
61471;SDS011;47337;54.068;12.114;2023-03-03T00:02:28;34.00;;;10.75;;
61471;SDS011;47337;54.068;12.114;2023-03-03T00:04:53;35.20;;;10.40;;
61471;SDS011;47337;54.068;12.114;2023-03-03T00:07:19;72.00;;;13.43;;
61471;SDS011;47337;54.068;12.114;2023-03-03T00:09:47;64.50;;;11.00;;
61471;SDS011;47337;54.068;12.114;2023-03-03T00:12:25;42.58;;;11.27;;
61471;SDS011;47337;54.068;12.114;2023-03-03T00:14:52;81.80;;;13.07;;
61471;SDS011;47337;54.068;12.114;2023-03-03T00:17:20;53.90;;;12.25;;
61471;SDS011;47337;54.068;12.114;2023-03-03T00:19:57;135.20;;;19.90;;
61471;SDS011;47337;54.068;12.114;2023-03-03T00:27:55;31.27;;;11.70;;
61471;SDS011;47337;54.068;12.114;2023-03-03T00:30:26;103.05;;;13.95;;
61471;SDS011;47337;54.068;12.114;2023-03-03T00:32:52;50.13;;;13.70;;
61471;SDS011;47337;54.068;12.114;2023-03-03T00:38:00;42.85;;;12.43;;
61471;SDS011;47337;54.068;12.114;2023-03-03T00:40:36;57.03;;;12.77;;
61471;SDS011;47337;54.068;12.114;2023-03-03T00:43:18;51.63;;;13.10;;
61471;SDS011;47337;54.068;12.114;2023-03-03T00:45:52;54.25;;;13.57;;
61471;SDS011;47337;54.068;12.114;2023-03-03T00:50:55;34.67;;;12.73;;
61471;SDS011;47337;54.068;12.114;2023-03-03T00:53:28;220.68;;;22.00;;
61471;SDS011;47337;54.068;12.114;2023-03-03T00:55:55;122.43;;;16.83;;
61471;SDS011;47337;54.068;12.114;2023-03-03T00:58:21;98.13;;;16.20;;
61471;SDS011;47337;54.068;12.114;2023-03-03T01:00:49;43.78;;;13.77;;
61471;SDS011;47337;54.068;12.114;2023-03-03T01:03:19;74.97;;;15.45;;
61471;SDS011;47337;54.068;12.114;2023-03-03T01:05:46;99.88;;;15.75;;
61471;SDS011;47337;54.068;12.114;2023-03-03T01:08:14;65.53;;;15.13;;
61471;SDS011;47337;54.068;12.114;2023-03-03T01:10:41;54.35;;;15.32;;
61471;SDS011;47337;54.068;12.114;2023-03-03T01:13:10;75.00;;;14.90;;
61471;SDS011;47337;54.068;12.114;2023-03-03T01:15:38;51.13;;;13.75;;
61471;SDS011;47337;54.068;12.114;2023-03-03T01:18:04;67.65;;;15.20;;
61471;SDS011;47337;54.068;12.114;2023-03-03T01:20:30;74.95;;;15.20;;
61471;SDS011;47337;54.068;12.114;2023-03-03T01:22:58;124.72;;;18.88;;
61471;SDS011;47337;54.068;12.114;2023-03-03T01:25:24;46.83;;;13.35;;
61471;SDS011;47337;54.068;12.114;2023-03-03T01:27:51;86.22;;;18.92;;
61471;SDS011;47337;54.068;12.114;2023-03-03T01:30:17;80.35;;;17.25;;
61471;SDS011;47337;54.068;12.114;2023-03-03T01:32:42;72.10;;;15.38;;
61471;SDS011;47337;54.068;12.114;2023-03-03T01:35:08;81.75;;;16.02;;
61471;SDS011;47337;54.068;12.114;2023-03-03T01:37:36;62.58;;;15.52;;
61471;SDS011;47337;54.068;12.114;2023-03-03T01:40:02;63.33;;;14.32;;
61471;SDS011;47337;54.068;12.114;2023-03-03T01:42:32;52.20;;;14.30;;
61471;SDS011;47337;54.068;12.114;2023-03-03T01:47:36;80.28;;;13.75;;
61471;SDS011;47337;54.068;12.114;2023-03-03T01:50:05;41.78;;;13.82;;
61471;SDS011;47337;54.068;12.114;2023-03-03T01:52:44;92.30;;;15.40;;
61471;SDS011;47337;54.068;12.114;2023-03-03T01:55:18;42.40;;;14.43;;
61471;SDS011;47337;54.068;12.114;2023-03-03T01:57:51;60.03;;;14.13;;
61471;SDS011;47337;54.068;12.114;2023-03-03T02:00:23;65.80;;;13.80;;
61471;SDS011;47337;54.068;12.114;2023-03-03T02:02:49;45.55;;;13.20;;
61471;SDS011;47337;54.068;12.114;2023-03-03T02:05:15;51.55;;;12.40;;
61471;SDS011;47337;54.068;12.114;2023-03-03T02:07:41;63.53;;;12.50;;
61471;SDS011;47337;54.068;12.114;2023-03-03T02:10:14;51.83;;;12.90;;
61471;SDS011;47337;54.068;12.114;2023-03-03T02:12:47;43.97;;;12.07;;
61471;SDS011;47337;54.068;12.114;2023-03-03T02:17:46;65.88;;;14.15;;
61471;SDS011;47337;54.068;12.114;2023-03-03T02:22:46;53.30;;;12.63;;
61471;SDS011;47337;54.068;12.114;2023-03-03T02:25:28;36.13;;;10.82;;
61471;SDS011;47337;54.068;12.114;2023-03-03T02:27:58;37.70;;;11.27;;
61471;SDS011;47337;54.068;12.114;2023-03-03T02:30:24;79.53;;;13.48;;
61471;SDS011;47337;54.068;12.114;2023-03-03T02:32:50;28.23;;;10.65;;
61471;SDS011;47337;54.068;12.114;2023-03-03T02:35:26;52.25;;;12.52;;
61471;SDS011;47337;54.068;12.114;2023-03-03T02:37:55;36.88;;;11.07;;
61471;SDS011;47337;54.068;12.114;2023-03-03T02:40:23;25.63;;;10.02;;
61471;SDS011;47337;54.068;12.114;2023-03-03T02:42:52;50.60;;;12.57;;
61471;SDS011;47337;54.068;12.114;2023-03-03T02:45:19;70.65;;;12.77;;
61471;SDS011;47337;54.068;12.114;2023-03-03T02:47:48;72.25;;;12.98;;
61471;SDS011;47337;54.068;12.114;2023-03-03T02:50:17;53.28;;;12.15;;
61471;SDS011;47337;54.068;12.114;2023-03-03T02:52:42;95.68;;;14.38;;
61471;SDS011;47337;54.068;12.114;2023-03-03T02:55:08;68.97;;;12.63;;
61471;SDS011;47337;54.068;12.114;2023-03-03T02:57:33;38.03;;;11.40;;
61471;SDS011;47337;54.068;12.114;2023-03-03T02:59:59;48.33;;;12.43;;
61471;SDS011;47337;54.068;12.114;2023-03-03T03:02:24;47.10;;;12.35;;
61471;SDS011;47337;54.068;12.114;2023-03-03T03:04:52;68.00;;;13.15;;
61471;SDS011;47337;54.068;12.114;2023-03-03T03:07:20;54.72;;;13.07;;
61471;SDS011;47337;54.068;12.114;2023-03-03T03:09:45;28.85;;;10.35;;
61471;SDS011;47337;54.068;12.114;2023-03-03T03:12:11;101.80;;;14.00;;
61471;SDS011;47337;54.068;12.114;2023-03-03T03:14:37;54.58;;;12.20;;
61471;SDS011;47337;54.068;12.114;2023-03-03T03:17:02;84.95;;;13.65;;
61471;SDS011;47337;54.068;12.114;2023-03-03T03:19:30;67.40;;;12.32;;
61471;SDS011;47337;54.068;12.114;2023-03-03T03:21:55;67.85;;;12.02;;
61471;SDS011;47337;54.068;12.114;2023-03-03T03:24:20;26.52;;;11.07;;
61471;SDS011;47337;54.068;12.114;2023-03-03T03:26:46;56.70;;;12.70;;
61471;SDS011;47337;54.068;12.114;2023-03-03T03:29:14;64.38;;;12.65;;
61471;SDS011;47337;54.068;12.114;2023-03-03T03:31:39;78.43;;;12.85;;
61471;SDS011;47337;54.068;12.114;2023-03-03T03:34:04;45.97;;;11.13;;
61471;SDS011;47337;54.068;12.114;2023-03-03T03:36:30;63.22;;;12.20;;
61471;SDS011;47337;54.068;12.114;2023-03-03T03:38:55;72.85;;;13.27;;
61471;SDS011;47337;54.068;12.114;2023-03-03T03:41:22;59.13;;;13.32;;
61471;SDS011;47337;54.068;12.114;2023-03-03T03:43:49;51.70;;;13.38;;
61471;SDS011;47337;54.068;12.114;2023-03-03T03:46:17;35.17;;;12.95;;
61471;SDS011;47337;54.068;12.114;2023-03-03T03:48:42;42.92;;;11.25;;
61471;SDS011;47337;54.068;12.114;2023-03-03T03:51:09;38.80;;;12.98;;
61471;SDS011;47337;54.068;12.114;2023-03-03T03:53:36;51.95;;;12.40;;
61471;SDS011;47337;54.068;12.114;2023-03-03T03:56:01;47.50;;;11.88;;
61471;SDS011;47337;54.068;12.114;2023-03-03T03:58:26;69.97;;;13.57;;
61471;SDS011;47337;54.068;12.114;2023-03-03T04:00:52;54.72;;;13.90;;
61471;SDS011;47337;54.068;12.114;2023-03-03T04:03:17;49.00;;;13.85;;
61471;SDS011;47337;54.068;12.114;2023-03-03T04:05:43;44.75;;;12.18;;
61471;SDS011;47337;54.068;12.114;2023-03-03T04:08:08;47.13;;;13.38;;
61471;SDS011;47337;54.068;12.114;2023-03-03T04:10:34;87.63;;;14.70;;
61471;SDS011;47337;54.068;12.114;2023-03-03T04:13:00;42.42;;;12.80;;
61471;SDS011;47337;54.068;12.114;2023-03-03T04:15:25;52.65;;;14.20;;
61471;SDS011;47337;54.068;12.114;2023-03-03T04:17:51;91.03;;;17.27;;
61471;SDS011;47337;54.068;12.114;2023-03-03T04:20:18;68.15;;;15.63;;
61471;SDS011;47337;54.068;12.114;2023-03-03T04:22:44;49.03;;;14.75;;
61471;SDS011;47337;54.068;12.114;2023-03-03T04:25:14;72.90;;;15.95;;
61471;SDS011;47337;54.068;12.114;2023-03-03T04:27:41;69.05;;;15.10;;
61471;SDS011;47337;54.068;12.114;2023-03-03T04:30:07;74.15;;;16.42;;
61471;SDS011;47337;54.068;12.114;2023-03-03T04:32:33;51.70;;;15.35;;
61471;SDS011;47337;54.068;12.114;2023-03-03T04:34:59;56.63;;;14.18;;
61471;SDS011;47337;54.068;12.114;2023-03-03T04:37:25;53.90;;;14.60;;
61471;SDS011;47337;54.068;12.114;2023-03-03T04:39:50;56.50;;;14.85;;
61471;SDS011;47337;54.068;12.114;2023-03-03T04:42:16;64.40;;;15.73;;
61471;SDS011;47337;54.068;12.114;2023-03-03T04:44:46;78.03;;;15.73;;
61471;SDS011;47337;54.068;12.114;2023-03-03T04:47:11;66.22;;;14.93;;
61471;SDS011;47337;54.068;12.114;2023-03-03T04:49:39;69.05;;;14.68;;
61471;SDS011;47337;54.068;12.114;2023-03-03T04:52:04;90.68;;;16.30;;
61471;SDS011;47337;54.068;12.114;2023-03-03T04:54:32;90.38;;;17.30;;
61471;SDS011;47337;54.068;12.114;2023-03-03T04:56:57;47.65;;;15.43;;
61471;SDS011;47337;54.068;12.114;2023-03-03T04:59:23;107.85;;;19.52;;
61471;SDS011;47337;54.068;12.114;2023-03-03T05:01:49;48.15;;;14.35;;
61471;SDS011;47337;54.068;12.114;2023-03-03T05:04:15;44.78;;;14.32;;
61471;SDS011;47337;54.068;12.114;2023-03-03T05:06:40;54.58;;;16.65;;
61471;SDS011;47337;54.068;12.114;2023-03-03T05:09:06;51.92;;;15.18;;
61471;SDS011;47337;54.068;12.114;2023-03-03T05:11:31;95.07;;;16.98;;
61471;SDS011;47337;54.068;12.114;2023-03-03T05:13:57;46.58;;;14.90;;
61471;SDS011;47337;54.068;12.114;2023-03-03T05:16:22;67.35;;;15.40;;
61471;SDS011;47337;54.068;12.114;2023-03-03T05:18:48;45.53;;;16.33;;
61471;SDS011;47337;54.068;12.114;2023-03-03T05:21:13;70.90;;;16.00;;
61471;SDS011;47337;54.068;12.114;2023-03-03T05:23:39;74.07;;;18.67;;
61471;SDS011;47337;54.068;12.114;2023-03-03T05:26:04;43.65;;;16.77;;
61471;SDS011;47337;54.068;12.114;2023-03-03T05:28:30;46.03;;;16.75;;
61471;SDS011;47337;54.068;12.114;2023-03-03T05:30:56;43.03;;;15.70;;
61471;SDS011;47337;54.068;12.114;2023-03-03T05:33:21;45.22;;;16.83;;
61471;SDS011;47337;54.068;12.114;2023-03-03T05:35:47;88.22;;;18.15;;
61471;SDS011;47337;54.068;12.114;2023-03-03T05:38:19;52.58;;;17.98;;
61471;SDS011;47337;54.068;12.114;2023-03-03T05:40:45;58.67;;;17.77;;
61471;SDS011;47337;54.068;12.114;2023-03-03T05:43:11;37.80;;;16.00;;
61471;SDS011;47337;54.068;12.114;2023-03-03T05:45:37;46.35;;;17.35;;
61471;SDS011;47337;54.068;12.114;2023-03-03T05:48:02;43.22;;;16.70;;
61471;SDS011;47337;54.068;12.114;2023-03-03T05:50:34;43.03;;;16.38;;
61471;SDS011;47337;54.068;12.114;2023-03-03T05:53:00;34.60;;;15.98;;
61471;SDS011;47337;54.068;12.114;2023-03-03T05:55:26;78.95;;;18.17;;
61471;SDS011;47337;54.068;12.114;2023-03-03T05:57:54;49.35;;;16.55;;
61471;SDS011;47337;54.068;12.114;2023-03-03T06:00:20;49.63;;;18.45;;
61471;SDS011;47337;54.068;12.114;2023-03-03T06:02:46;46.20;;;18.88;;
61471;SDS011;47337;54.068;12.114;2023-03-03T06:05:11;52.00;;;19.90;;
61471;SDS011;47337;54.068;12.114;2023-03-03T06:07:36;51.17;;;19.17;;
61471;SDS011;47337;54.068;12.114;2023-03-03T06:10:02;45.42;;;17.85;;
61471;SDS011;47337;54.068;12.114;2023-03-03T06:12:31;44.40;;;17.08;;
61471;SDS011;47337;54.068;12.114;2023-03-03T06:14:56;48.42;;;17.73;;
61471;SDS011;47337;54.068;12.114;2023-03-03T06:17:22;47.88;;;17.63;;
61471;SDS011;47337;54.068;12.114;2023-03-03T06:19:50;41.25;;;17.65;;
61471;SDS011;47337;54.068;12.114;2023-03-03T06:22:15;37.72;;;17.98;;
61471;SDS011;47337;54.068;12.114;2023-03-03T06:24:41;68.43;;;19.45;;
61471;SDS011;47337;54.068;12.114;2023-03-03T06:27:06;46.40;;;17.52;;
61471;SDS011;47337;54.068;12.114;2023-03-03T06:29:33;65.38;;;17.85;;
61471;SDS011;47337;54.068;12.114;2023-03-03T06:31:58;53.13;;;17.63;;
61471;SDS011;47337;54.068;12.114;2023-03-03T06:34:23;46.45;;;18.38;;
61471;SDS011;47337;54.068;12.114;2023-03-03T06:36:49;42.65;;;17.30;;
61471;SDS011;47337;54.068;12.114;2023-03-03T06:39:14;41.95;;;16.75;;
61471;SDS011;47337;54.068;12.114;2023-03-03T06:41:42;68.05;;;18.40;;
61471;SDS011;47337;54.068;12.114;2023-03-03T06:44:07;42.40;;;18.10;;
61471;SDS011;47337;54.068;12.114;2023-03-03T06:46:33;49.25;;;17.50;;
61471;SDS011;47337;54.068;12.114;2023-03-03T06:48:58;35.10;;;16.23;;
61471;SDS011;47337;54.068;12.114;2023-03-03T06:53:57;72.28;;;18.27;;
61471;SDS011;47337;54.068;12.114;2023-03-03T06:56:36;54.95;;;19.38;;
61471;SDS011;47337;54.068;12.114;2023-03-03T06:59:13;47.60;;;19.02;;
61471;SDS011;47337;54.068;12.114;2023-03-03T07:01:40;44.85;;;17.25;;
61471;SDS011;47337;54.068;12.114;2023-03-03T07:04:21;44.42;;;17.10;;
61471;SDS011;47337;54.068;12.114;2023-03-03T07:06:53;40.53;;;17.63;;
61471;SDS011;47337;54.068;12.114;2023-03-03T07:09:24;52.65;;;18.73;;
61471;SDS011;47337;54.068;12.114;2023-03-03T07:11:51;48.03;;;18.52;;
61471;SDS011;47337;54.068;12.114;2023-03-03T07:14:46;43.67;;;17.50;;
61471;SDS011;47337;54.068;12.114;2023-03-03T07:19:45;39.65;;;18.25;;
61471;SDS011;47337;54.068;12.114;2023-03-03T07:22:18;42.22;;;17.38;;
61471;SDS011;47337;54.068;12.114;2023-03-03T07:24:46;39.75;;;15.75;;
61471;SDS011;47337;54.068;12.114;2023-03-03T07:27:25;37.63;;;17.08;;
61471;SDS011;47337;54.068;12.114;2023-03-03T07:29:53;37.85;;;16.00;;
61471;SDS011;47337;54.068;12.114;2023-03-03T07:34:55;30.65;;;15.30;;
61471;SDS011;47337;54.068;12.114;2023-03-03T07:39:52;28.50;;;13.73;;
61471;SDS011;47337;54.068;12.114;2023-03-03T07:44:52;27.23;;;12.82;;
61471;SDS011;47337;54.068;12.114;2023-03-03T07:47:26;25.85;;;13.68;;
61471;SDS011;47337;54.068;12.114;2023-03-03T07:49:55;25.67;;;12.65;;
61471;SDS011;47337;54.068;12.114;2023-03-03T07:52:33;27.63;;;13.65;;
61471;SDS011;47337;54.068;12.114;2023-03-03T07:55:00;29.48;;;14.15;;
61471;SDS011;47337;54.068;12.114;2023-03-03T07:57:44;27.33;;;13.90;;
61471;SDS011;47337;54.068;12.114;2023-03-03T08:02:42;26.20;;;13.57;;
61471;SDS011;47337;54.068;12.114;2023-03-03T08:08:02;22.25;;;12.55;;
61471;SDS011;47337;54.068;12.114;2023-03-03T08:20:57;20.70;;;11.68;;
61471;SDS011;47337;54.068;12.114;2023-03-03T08:23:29;17.85;;;10.23;;
61471;SDS011;47337;54.068;12.114;2023-03-03T08:25:57;20.63;;;11.35;;
61471;SDS011;47337;54.068;12.114;2023-03-03T08:28:23;18.05;;;10.30;;
61471;SDS011;47337;54.068;12.114;2023-03-03T08:30:48;19.27;;;11.05;;
61471;SDS011;47337;54.068;12.114;2023-03-03T08:33:18;21.73;;;10.88;;
61471;SDS011;47337;54.068;12.114;2023-03-03T08:35:44;19.67;;;10.85;;
61471;SDS011;47337;54.068;12.114;2023-03-03T08:38:13;19.50;;;10.20;;
61471;SDS011;47337;54.068;12.114;2023-03-03T08:40:40;17.70;;;10.65;;
61471;SDS011;47337;54.068;12.114;2023-03-03T08:43:06;18.20;;;10.48;;
61471;SDS011;47337;54.068;12.114;2023-03-03T08:45:32;21.58;;;11.57;;
61471;SDS011;47337;54.068;12.114;2023-03-03T08:47:58;19.23;;;10.77;;
61471;SDS011;47337;54.068;12.114;2023-03-03T08:50:27;20.50;;;10.70;;
61471;SDS011;47337;54.068;12.114;2023-03-03T08:52:53;18.42;;;10.57;;
61471;SDS011;47337;54.068;12.114;2023-03-03T08:55:19;16.42;;;9.98;;
61471;SDS011;47337;54.068;12.114;2023-03-03T08:57:45;18.75;;;10.55;;
61471;SDS011;47337;54.068;12.114;2023-03-03T09:00:11;17.88;;;10.70;;
61471;SDS011;47337;54.068;12.114;2023-03-03T09:02:38;17.75;;;10.07;;
61471;SDS011;47337;54.068;12.114;2023-03-03T09:05:04;17.73;;;10.57;;
61471;SDS011;47337;54.068;12.114;2023-03-03T09:07:30;19.98;;;11.00;;
61471;SDS011;47337;54.068;12.114;2023-03-03T09:09:56;17.73;;;9.45;;
61471;SDS011;47337;54.068;12.114;2023-03-03T09:14:56;17.55;;;10.98;;
61471;SDS011;47337;54.068;12.114;2023-03-03T09:19:59;16.55;;;9.63;;
61471;SDS011;47337;54.068;12.114;2023-03-03T09:22:47;15.48;;;9.10;;
61471;SDS011;47337;54.068;12.114;2023-03-03T09:25:30;14.52;;;8.70;;
61471;SDS011;47337;54.068;12.114;2023-03-03T09:28:01;15.82;;;9.80;;
61471;SDS011;47337;54.068;12.114;2023-03-03T09:30:29;15.32;;;9.75;;
61471;SDS011;47337;54.068;12.114;2023-03-03T09:33:15;16.92;;;9.75;;
61471;SDS011;47337;54.068;12.114;2023-03-03T09:35:48;16.52;;;9.75;;
61471;SDS011;47337;54.068;12.114;2023-03-03T09:38:25;17.30;;;9.75;;
61471;SDS011;47337;54.068;12.114;2023-03-03T09:49:35;12.45;;;8.35;;
61471;SDS011;47337;54.068;12.114;2023-03-03T10:00:32;13.13;;;7.70;;
61471;SDS011;47337;54.068;12.114;2023-03-03T10:11:27;9.93;;;6.28;;
61471;SDS011;47337;54.068;12.114;2023-03-03T10:19:38;10.68;;;6.68;;
61471;SDS011;47337;54.068;12.114;2023-03-03T10:22:23;11.38;;;6.18;;
61471;SDS011;47337;54.068;12.114;2023-03-03T10:30:52;10.57;;;6.93;;
61471;SDS011;47337;54.068;12.114;2023-03-03T10:33:40;9.20;;;6.43;;
61471;SDS011;47337;54.068;12.114;2023-03-03T10:36:26;8.90;;;6.40;;
61471;SDS011;47337;54.068;12.114;2023-03-03T11:08:17;8.07;;;5.75;;
61471;SDS011;47337;54.068;12.114;2023-03-03T11:14:22;8.82;;;5.93;;
61471;SDS011;47337;54.068;12.114;2023-03-03T11:23:06;11.13;;;6.60;;
61471;SDS011;47337;54.068;12.114;2023-03-03T11:33:44;13.77;;;7.88;;
61471;SDS011;47337;54.068;12.114;2023-03-03T11:36:33;11.40;;;7.72;;
61471;SDS011;47337;54.068;12.114;2023-03-03T11:39:08;11.05;;;7.47;;
61471;SDS011;47337;54.068;12.114;2023-03-03T11:47:44;15.60;;;7.63;;
61471;SDS011;47337;54.068;12.114;2023-03-03T11:50:30;11.82;;;7.15;;
61471;SDS011;47337;54.068;12.114;2023-03-03T11:55:56;11.40;;;6.53;;
61471;SDS011;47337;54.068;12.114;2023-03-03T11:58:28;12.93;;;7.53;;
61471;SDS011;47337;54.068;12.114;2023-03-03T12:09:24;14.57;;;8.23;;
61471;SDS011;47337;54.068;12.114;2023-03-03T12:12:09;20.42;;;8.75;;
61471;SDS011;47337;54.068;12.114;2023-03-03T12:20:12;13.45;;;7.82;;
61471;SDS011;47337;54.068;12.114;2023-03-03T12:25:46;16.55;;;7.88;;
61471;SDS011;47337;54.068;12.114;2023-03-03T12:28:27;13.55;;;7.47;;
61471;SDS011;47337;54.068;12.114;2023-03-03T12:42:02;12.05;;;6.55;;
61471;SDS011;47337;54.068;12.114;2023-03-03T12:44:45;9.82;;;6.28;;
61471;SDS011;47337;54.068;12.114;2023-03-03T12:47:24;9.45;;;5.68;;
61471;SDS011;47337;54.068;12.114;2023-03-03T12:52:42;11.30;;;5.30;;
61471;SDS011;47337;54.068;12.114;2023-03-03T12:57:44;6.60;;;4.50;;
61471;SDS011;47337;54.068;12.114;2023-03-03T13:03:10;11.05;;;4.57;;
61471;SDS011;47337;54.068;12.114;2023-03-03T13:05:54;8.80;;;5.38;;
61471;SDS011;47337;54.068;12.114;2023-03-03T13:16:30;8.27;;;4.38;;
61471;SDS011;47337;54.068;12.114;2023-03-03T13:19:09;7.45;;;4.60;;
61471;SDS011;47337;54.068;12.114;2023-03-03T13:29:49;5.57;;;3.10;;
61471;SDS011;47337;54.068;12.114;2023-03-03T13:34:54;6.32;;;3.38;;
61471;SDS011;47337;54.068;12.114;2023-03-03T13:45:35;4.95;;;3.08;;
61471;SDS011;47337;54.068;12.114;2023-03-03T13:48:14;8.00;;;3.53;;
61471;SDS011;47337;54.068;12.114;2023-03-03T13:50:49;5.47;;;2.70;;
61471;SDS011;47337;54.068;12.114;2023-03-03T13:58:48;6.93;;;2.78;;
61471;SDS011;47337;54.068;12.114;2023-03-03T14:01:22;4.53;;;2.78;;
61471;SDS011;47337;54.068;12.114;2023-03-03T14:06:56;4.57;;;2.70;;
61471;SDS011;47337;54.068;12.114;2023-03-03T14:09:36;4.30;;;3.10;;
61471;SDS011;47337;54.068;12.114;2023-03-03T14:15:00;4.97;;;3.13;;
61471;SDS011;47337;54.068;12.114;2023-03-03T14:22:57;7.00;;;3.05;;
61471;SDS011;47337;54.068;12.114;2023-03-03T14:25:25;8.25;;;3.55;;
61471;SDS011;47337;54.068;12.114;2023-03-03T14:28:13;8.65;;;3.75;;
61471;SDS011;47337;54.068;12.114;2023-03-03T14:30:42;7.20;;;3.63;;
61471;SDS011;47337;54.068;12.114;2023-03-03T14:38:21;7.05;;;3.58;;
61471;SDS011;47337;54.068;12.114;2023-03-03T14:40:48;9.43;;;4.28;;
61471;SDS011;47337;54.068;12.114;2023-03-03T14:46:22;8.15;;;3.95;;
61471;SDS011;47337;54.068;12.114;2023-03-03T14:49:01;10.38;;;4.38;;
61471;SDS011;47337;54.068;12.114;2023-03-03T14:51:39;7.10;;;3.70;;
61471;SDS011;47337;54.068;12.114;2023-03-03T14:54:19;5.88;;;3.58;;
61471;SDS011;47337;54.068;12.114;2023-03-03T14:56:59;8.90;;;4.35;;
61471;SDS011;47337;54.068;12.114;2023-03-03T14:59:30;9.43;;;4.40;;
61471;SDS011;47337;54.068;12.114;2023-03-03T15:01:59;6.57;;;4.60;;
61471;SDS011;47337;54.068;12.114;2023-03-03T15:04:27;8.45;;;5.68;;
61471;SDS011;47337;54.068;12.114;2023-03-03T15:06:55;9.15;;;7.03;;
61471;SDS011;47337;54.068;12.114;2023-03-03T15:09:31;10.70;;;7.45;;
61471;SDS011;47337;54.068;12.114;2023-03-03T15:14:43;15.05;;;8.55;;
61471;SDS011;47337;54.068;12.114;2023-03-03T15:20:03;11.40;;;7.82;;
61471;SDS011;47337;54.068;12.114;2023-03-03T15:22:48;11.15;;;6.78;;
61471;SDS011;47337;54.068;12.114;2023-03-03T15:30:52;13.40;;;7.85;;
61471;SDS011;47337;54.068;12.114;2023-03-03T15:36:28;13.65;;;7.00;;
61471;SDS011;47337;54.068;12.114;2023-03-03T16:06:37;11.63;;;4.47;;
61471;SDS011;47337;54.068;12.114;2023-03-03T16:31:20;8.23;;;3.88;;
61471;SDS011;47337;54.068;12.114;2023-03-03T16:42:35;8.88;;;4.07;;
61471;SDS011;47337;54.068;12.114;2023-03-03T17:04:48;10.35;;;4.50;;
61471;SDS011;47337;54.068;12.114;2023-03-03T17:15:12;9.48;;;5.55;;
61471;SDS011;47337;54.068;12.114;2023-03-03T17:20:27;9.18;;;5.20;;
61471;SDS011;47337;54.068;12.114;2023-03-03T17:25:36;8.02;;;4.53;;
61471;SDS011;47337;54.068;12.114;2023-03-03T17:30:41;14.38;;;6.05;;
61471;SDS011;47337;54.068;12.114;2023-03-03T17:35:56;7.22;;;3.30;;
61471;SDS011;47337;54.068;12.114;2023-03-03T17:41:34;6.65;;;3.40;;
61471;SDS011;47337;54.068;12.114;2023-03-03T17:46:54;11.77;;;3.20;;
61471;SDS011;47337;54.068;12.114;2023-03-03T18:08:08;10.80;;;3.72;;
61471;SDS011;47337;54.068;12.114;2023-03-03T18:18:45;9.95;;;3.70;;
61471;SDS011;47337;54.068;12.114;2023-03-03T18:21:22;15.55;;;3.55;;
61471;SDS011;47337;54.068;12.114;2023-03-03T18:24:12;11.02;;;4.22;;
61471;SDS011;47337;54.068;12.114;2023-03-03T18:26:51;11.85;;;4.22;;
61471;SDS011;47337;54.068;12.114;2023-03-03T18:29:24;13.30;;;4.70;;
61471;SDS011;47337;54.068;12.114;2023-03-03T18:42:39;17.55;;;5.25;;
61471;SDS011;47337;54.068;12.114;2023-03-03T18:45:09;12.15;;;4.15;;
61471;SDS011;47337;54.068;12.114;2023-03-03T18:50:35;15.07;;;4.18;;
61471;SDS011;47337;54.068;12.114;2023-03-03T19:00:44;21.35;;;5.38;;
61471;SDS011;47337;54.068;12.114;2023-03-03T19:03:26;13.27;;;4.32;;
61471;SDS011;47337;54.068;12.114;2023-03-03T19:05:52;21.15;;;5.82;;
61471;SDS011;47337;54.068;12.114;2023-03-03T19:08:28;20.40;;;5.85;;
61471;SDS011;47337;54.068;12.114;2023-03-03T19:10:58;20.15;;;5.03;;
61471;SDS011;47337;54.068;12.114;2023-03-03T19:16:06;18.63;;;5.03;;
61471;SDS011;47337;54.068;12.114;2023-03-03T19:31:50;20.05;;;5.43;;
61471;SDS011;47337;54.068;12.114;2023-03-03T19:37:03;24.40;;;6.30;;
61471;SDS011;47337;54.068;12.114;2023-03-03T19:39:50;18.48;;;5.50;;
61471;SDS011;47337;54.068;12.114;2023-03-03T19:47:57;25.17;;;5.18;;
61471;SDS011;47337;54.068;12.114;2023-03-03T19:58:19;20.25;;;5.78;;
61471;SDS011;47337;54.068;12.114;2023-03-03T20:09:52;23.52;;;6.38;;
61471;SDS011;47337;54.068;12.114;2023-03-03T20:12:23;22.23;;;5.18;;
61471;SDS011;47337;54.068;12.114;2023-03-03T20:14:51;29.50;;;5.22;;
61471;SDS011;47337;54.068;12.114;2023-03-03T20:20:29;19.73;;;4.60;;
61471;SDS011;47337;54.068;12.114;2023-03-03T20:36:25;19.60;;;4.18;;
61471;SDS011;47337;54.068;12.114;2023-03-03T20:39:01;18.50;;;4.88;;
61471;SDS011;47337;54.068;12.114;2023-03-03T20:44:36;33.40;;;5.47;;
61471;SDS011;47337;54.068;12.114;2023-03-03T20:53:11;23.35;;;4.85;;
61471;SDS011;47337;54.068;12.114;2023-03-03T20:56:18;27.85;;;6.82;;
61471;SDS011;47337;54.068;12.114;2023-03-03T20:58:44;18.48;;;5.30;;
61471;SDS011;47337;54.068;12.114;2023-03-03T21:01:41;34.42;;;5.43;;
61471;SDS011;47337;54.068;12.114;2023-03-03T21:06:45;30.48;;;4.88;;
61471;SDS011;47337;54.068;12.114;2023-03-03T21:11:58;27.60;;;4.88;;
61471;SDS011;47337;54.068;12.114;2023-03-03T21:16:53;21.98;;;5.13;;
61471;SDS011;47337;54.068;12.114;2023-03-03T21:21:57;20.75;;;4.72;;
61471;SDS011;47337;54.068;12.114;2023-03-03T21:27:30;23.67;;;5.45;;
61471;SDS011;47337;54.068;12.114;2023-03-03T21:30:08;26.38;;;6.20;;
61471;SDS011;47337;54.068;12.114;2023-03-03T21:32:45;29.42;;;8.30;;
61471;SDS011;47337;54.068;12.114;2023-03-03T21:35:14;25.25;;;6.18;;
61471;SDS011;47337;54.068;12.114;2023-03-03T21:40:24;31.35;;;8.43;;
61471;SDS011;47337;54.068;12.114;2023-03-03T21:42:52;28.55;;;6.25;;
61471;SDS011;47337;54.068;12.114;2023-03-03T21:45:19;23.23;;;5.22;;
61471;SDS011;47337;54.068;12.114;2023-03-03T21:47:46;25.20;;;6.28;;
61471;SDS011;47337;54.068;12.114;2023-03-03T21:50:14;21.70;;;5.55;;
61471;SDS011;47337;54.068;12.114;2023-03-03T21:52:40;18.05;;;5.90;;
61471;SDS011;47337;54.068;12.114;2023-03-03T21:55:08;26.45;;;5.85;;
61471;SDS011;47337;54.068;12.114;2023-03-03T21:57:33;35.75;;;7.15;;
61471;SDS011;47337;54.068;12.114;2023-03-03T22:00:00;19.80;;;5.20;;
61471;SDS011;47337;54.068;12.114;2023-03-03T22:02:26;25.90;;;6.22;;
61471;SDS011;47337;54.068;12.114;2023-03-03T22:04:53;21.08;;;5.25;;
61471;SDS011;47337;54.068;12.114;2023-03-03T22:07:19;20.13;;;5.03;;
61471;SDS011;47337;54.068;12.114;2023-03-03T22:09:47;26.23;;;5.93;;
61471;SDS011;47337;54.068;12.114;2023-03-03T22:12:12;23.40;;;6.07;;
61471;SDS011;47337;54.068;12.114;2023-03-03T22:14:38;24.20;;;5.68;;
61471;SDS011;47337;54.068;12.114;2023-03-03T22:17:03;14.77;;;4.90;;
61471;SDS011;47337;54.068;12.114;2023-03-03T22:19:28;20.00;;;4.80;;
61471;SDS011;47337;54.068;12.114;2023-03-03T22:21:54;28.92;;;6.95;;
61471;SDS011;47337;54.068;12.114;2023-03-03T22:24:19;29.08;;;5.68;;
61471;SDS011;47337;54.068;12.114;2023-03-03T22:26:46;27.60;;;5.47;;
61471;SDS011;47337;54.068;12.114;2023-03-03T22:29:11;24.85;;;6.60;;
61471;SDS011;47337;54.068;12.114;2023-03-03T22:31:37;18.25;;;4.80;;